sensor_id;sensor_type;location;lat;lon;timestamp;temperature;humidity
17726;DHT22;8983;53.156;17.960;2022-09-01T00:00:37;14.80;99.90
17726;DHT22;8983;53.156;17.960;2022-09-01T00:03:07;14.80;99.90
17726;DHT22;8983;53.156;17.960;2022-09-01T00:05:36;14.70;99.90
17726;DHT22;8983;53.156;17.960;2022-09-01T00:08:06;14.70;99.90
17726;DHT22;8983;53.156;17.960;2022-09-01T00:10:34;14.60;99.90
17726;DHT22;8983;53.156;17.960;2022-09-01T00:13:02;14.60;99.90
17726;DHT22;8983;53.156;17.960;2022-09-01T00:15:32;14.50;99.90
17726;DHT22;8983;53.156;17.960;2022-09-01T00:18:01;14.50;99.90
17726;DHT22;8983;53.156;17.960;2022-09-01T00:20:29;14.50;99.90
17726;DHT22;8983;53.156;17.960;2022-09-01T00:22:57;14.50;99.90
17726;DHT22;8983;53.156;17.960;2022-09-01T00:25:27;14.40;99.90
17726;DHT22;8983;53.156;17.960;2022-09-01T00:27:56;14.40;99.90
17726;DHT22;8983;53.156;17.960;2022-09-01T00:30:26;14.40;99.90
17726;DHT22;8983;53.156;17.960;2022-09-01T00:32:54;14.40;99.90
17726;DHT22;8983;53.156;17.960;2022-09-01T00:35:22;14.20;99.90
17726;DHT22;8983;53.156;17.960;2022-09-01T00:37:50;14.20;99.90
17726;DHT22;8983;53.156;17.960;2022-09-01T00:40:18;14.20;99.90
17726;DHT22;8983;53.156;17.960;2022-09-01T00:42:48;14.10;99.90
17726;DHT22;8983;53.156;17.960;2022-09-01T00:45:16;14.10;99.90
17726;DHT22;8983;53.156;17.960;2022-09-01T00:47:47;14.10;99.90
17726;DHT22;8983;53.156;17.960;2022-09-01T00:50:17;14.10;99.90
17726;DHT22;8983;53.156;17.960;2022-09-01T00:52:49;14.10;99.90
17726;DHT22;8983;53.156;17.960;2022-09-01T00:55:24;14.10;99.90
17726;DHT22;8983;53.156;17.960;2022-09-01T00:57:55;14.00;99.90
17726;DHT22;8983;53.156;17.960;2022-09-01T01:00:26;14.00;99.90
17726;DHT22;8983;53.156;17.960;2022-09-01T01:02:55;13.90;99.90
17726;DHT22;8983;53.156;17.960;2022-09-01T01:05:26;13.90;99.90
17726;DHT22;8983;53.156;17.960;2022-09-01T01:07:59;13.80;99.90
17726;DHT22;8983;53.156;17.960;2022-09-01T01:10:30;13.80;99.90
17726;DHT22;8983;53.156;17.960;2022-09-01T01:13:06;13.80;99.90
17726;DHT22;8983;53.156;17.960;2022-09-01T01:15:35;13.80;99.90
17726;DHT22;8983;53.156;17.960;2022-09-01T01:18:03;13.80;99.90
17726;DHT22;8983;53.156;17.960;2022-09-01T01:20:32;13.80;99.90
17726;DHT22;8983;53.156;17.960;2022-09-01T01:23:24;13.80;99.90
17726;DHT22;8983;53.156;17.960;2022-09-01T01:25:59;13.80;99.90
17726;DHT22;8983;53.156;17.960;2022-09-01T01:28:29;13.80;99.90
17726;DHT22;8983;53.156;17.960;2022-09-01T01:31:00;13.70;99.90
17726;DHT22;8983;53.156;17.960;2022-09-01T01:33:31;13.80;99.90
17726;DHT22;8983;53.156;17.960;2022-09-01T01:35:59;13.80;99.90
17726;DHT22;8983;53.156;17.960;2022-09-01T01:38:27;13.70;99.90
17726;DHT22;8983;53.156;17.960;2022-09-01T01:40:58;13.60;99.90
17726;DHT22;8983;53.156;17.960;2022-09-01T01:43:27;13.60;99.90
17726;DHT22;8983;53.156;17.960;2022-09-01T01:45:56;13.60;99.90
17726;DHT22;8983;53.156;17.960;2022-09-01T01:48:29;13.60;99.90
17726;DHT22;8983;53.156;17.960;2022-09-01T01:51:01;13.50;99.90
17726;DHT22;8983;53.156;17.960;2022-09-01T01:53:31;13.40;99.90
17726;DHT22;8983;53.156;17.960;2022-09-01T01:56:00;13.40;99.90
17726;DHT22;8983;53.156;17.960;2022-09-01T01:58:28;13.40;99.90
17726;DHT22;8983;53.156;17.960;2022-09-01T02:00:57;13.40;99.90
17726;DHT22;8983;53.156;17.960;2022-09-01T02:03:28;13.40;99.90
17726;DHT22;8983;53.156;17.960;2022-09-01T02:06:05;13.40;99.90
17726;DHT22;8983;53.156;17.960;2022-09-01T02:08:36;13.30;99.90
17726;DHT22;8983;53.156;17.960;2022-09-01T02:11:06;13.30;99.90
17726;DHT22;8983;53.156;17.960;2022-09-01T02:13:34;13.30;99.90
17726;DHT22;8983;53.156;17.960;2022-09-01T02:16:05;13.20;99.90
17726;DHT22;8983;53.156;17.960;2022-09-01T02:18:40;13.20;99.90
17726;DHT22;8983;53.156;17.960;2022-09-01T02:21:09;13.20;99.90
17726;DHT22;8983;53.156;17.960;2022-09-01T02:23:45;13.10;99.90
17726;DHT22;8983;53.156;17.960;2022-09-01T02:26:16;13.10;99.90
17726;DHT22;8983;53.156;17.960;2022-09-01T02:56:25;12.50;99.90
17726;DHT22;8983;53.156;17.960;2022-09-01T02:58:54;12.50;99.90
17726;DHT22;8983;53.156;17.960;2022-09-01T03:01:24;12.50;99.90
17726;DHT22;8983;53.156;17.960;2022-09-01T03:03:55;12.40;99.90
17726;DHT22;8983;53.156;17.960;2022-09-01T03:06:24;12.40;99.90
17726;DHT22;8983;53.156;17.960;2022-09-01T03:08:56;12.40;99.90
17726;DHT22;8983;53.156;17.960;2022-09-01T03:11:28;12.40;99.90
17726;DHT22;8983;53.156;17.960;2022-09-01T03:13:57;12.40;99.90
17726;DHT22;8983;53.156;17.960;2022-09-01T03:16:25;12.30;99.90
17726;DHT22;8983;53.156;17.960;2022-09-01T03:18:56;12.30;99.90
17726;DHT22;8983;53.156;17.960;2022-09-01T03:21:25;12.30;99.90
17726;DHT22;8983;53.156;17.960;2022-09-01T03:23:53;12.20;99.90
17726;DHT22;8983;53.156;17.960;2022-09-01T03:26:23;12.20;99.90
17726;DHT22;8983;53.156;17.960;2022-09-01T03:28:53;12.10;99.90
17726;DHT22;8983;53.156;17.960;2022-09-01T03:31:21;12.10;99.90
17726;DHT22;8983;53.156;17.960;2022-09-01T03:33:57;12.10;99.90
17726;DHT22;8983;53.156;17.960;2022-09-01T03:36:26;12.10;99.90
17726;DHT22;8983;53.156;17.960;2022-09-01T03:38:56;12.10;99.90
17726;DHT22;8983;53.156;17.960;2022-09-01T03:41:26;12.10;99.90
17726;DHT22;8983;53.156;17.960;2022-09-01T03:43:57;12.00;99.90
17726;DHT22;8983;53.156;17.960;2022-09-01T03:46:27;11.90;99.90
17726;DHT22;8983;53.156;17.960;2022-09-01T03:49:03;11.90;99.90
17726;DHT22;8983;53.156;17.960;2022-09-01T03:51:33;11.90;99.90
17726;DHT22;8983;53.156;17.960;2022-09-01T03:54:05;11.90;99.90
17726;DHT22;8983;53.156;17.960;2022-09-01T03:56:33;11.90;99.90
17726;DHT22;8983;53.156;17.960;2022-09-01T03:59:02;11.90;99.90
17726;DHT22;8983;53.156;17.960;2022-09-01T04:01:33;12.00;99.90
17726;DHT22;8983;53.156;17.960;2022-09-01T04:04:10;12.00;99.90
17726;DHT22;8983;53.156;17.960;2022-09-01T04:06:40;12.00;99.90
17726;DHT22;8983;53.156;17.960;2022-09-01T04:09:08;12.00;99.90
17726;DHT22;8983;53.156;17.960;2022-09-01T04:11:37;12.00;99.90
17726;DHT22;8983;53.156;17.960;2022-09-01T04:14:13;12.00;99.90
17726;DHT22;8983;53.156;17.960;2022-09-01T04:16:42;12.00;99.90
17726;DHT22;8983;53.156;17.960;2022-09-01T04:19:32;12.00;99.90
17726;DHT22;8983;53.156;17.960;2022-09-01T04:22:03;12.10;99.90
17726;DHT22;8983;53.156;17.960;2022-09-01T04:24:32;12.10;99.90
17726;DHT22;8983;53.156;17.960;2022-09-01T04:27:01;12.20;99.90
17726;DHT22;8983;53.156;17.960;2022-09-01T04:29:31;12.20;99.90
17726;DHT22;8983;53.156;17.960;2022-09-01T04:32:01;12.20;99.90
17726;DHT22;8983;53.156;17.960;2022-09-01T04:34:31;12.20;99.90
17726;DHT22;8983;53.156;17.960;2022-09-01T04:37:07;12.10;99.90
17726;DHT22;8983;53.156;17.960;2022-09-01T04:39:35;12.20;99.90
17726;DHT22;8983;53.156;17.960;2022-09-01T04:42:05;12.20;99.90
17726;DHT22;8983;53.156;17.960;2022-09-01T04:44:37;12.20;99.90
17726;DHT22;8983;53.156;17.960;2022-09-01T04:47:05;12.30;99.90
17726;DHT22;8983;53.156;17.960;2022-09-01T04:49:36;12.30;99.90
17726;DHT22;8983;53.156;17.960;2022-09-01T04:52:04;12.40;99.90
17726;DHT22;8983;53.156;17.960;2022-09-01T04:54:32;12.40;99.90
17726;DHT22;8983;53.156;17.960;2022-09-01T04:57:03;12.50;99.90
17726;DHT22;8983;53.156;17.960;2022-09-01T04:59:32;12.50;99.90
17726;DHT22;8983;53.156;17.960;2022-09-01T05:02:02;12.50;99.90
17726;DHT22;8983;53.156;17.960;2022-09-01T05:04:33;12.60;99.90
17726;DHT22;8983;53.156;17.960;2022-09-01T05:07:03;12.60;99.90
17726;DHT22;8983;53.156;17.960;2022-09-01T05:09:34;12.60;99.90
17726;DHT22;8983;53.156;17.960;2022-09-01T05:12:03;12.60;99.90
17726;DHT22;8983;53.156;17.960;2022-09-01T05:14:43;12.70;99.90
17726;DHT22;8983;53.156;17.960;2022-09-01T05:17:14;12.70;99.90
17726;DHT22;8983;53.156;17.960;2022-09-01T05:19:44;12.70;99.90
17726;DHT22;8983;53.156;17.960;2022-09-01T05:22:14;12.70;99.90
17726;DHT22;8983;53.156;17.960;2022-09-01T05:24:47;12.70;99.90
17726;DHT22;8983;53.156;17.960;2022-09-01T05:27:21;12.70;99.90
17726;DHT22;8983;53.156;17.960;2022-09-01T05:29:49;12.80;99.90
17726;DHT22;8983;53.156;17.960;2022-09-01T05:32:21;12.80;99.90
17726;DHT22;8983;53.156;17.960;2022-09-01T05:34:51;12.80;99.90
17726;DHT22;8983;53.156;17.960;2022-09-01T05:37:19;12.80;99.90
17726;DHT22;8983;53.156;17.960;2022-09-01T05:39:47;12.80;99.90
17726;DHT22;8983;53.156;17.960;2022-09-01T05:42:16;12.90;99.90
17726;DHT22;8983;53.156;17.960;2022-09-01T05:44:44;12.90;99.90
17726;DHT22;8983;53.156;17.960;2022-09-01T05:47:18;13.00;99.90
17726;DHT22;8983;53.156;17.960;2022-09-01T05:49:49;13.00;99.90
17726;DHT22;8983;53.156;17.960;2022-09-01T05:52:19;13.10;99.90
17726;DHT22;8983;53.156;17.960;2022-09-01T05:54:52;13.10;99.90
17726;DHT22;8983;53.156;17.960;2022-09-01T05:57:22;13.20;99.90
17726;DHT22;8983;53.156;17.960;2022-09-01T06:00:03;13.30;99.90
17726;DHT22;8983;53.156;17.960;2022-09-01T06:02:36;13.30;99.90
17726;DHT22;8983;53.156;17.960;2022-09-01T06:05:08;13.30;99.90
17726;DHT22;8983;53.156;17.960;2022-09-01T06:07:36;13.40;99.90
17726;DHT22;8983;53.156;17.960;2022-09-01T06:10:07;13.40;99.90
17726;DHT22;8983;53.156;17.960;2022-09-01T06:12:35;13.50;99.90
17726;DHT22;8983;53.156;17.960;2022-09-01T06:15:04;13.50;99.90
17726;DHT22;8983;53.156;17.960;2022-09-01T06:17:41;13.60;99.90
17726;DHT22;8983;53.156;17.960;2022-09-01T06:20:11;13.70;99.90
17726;DHT22;8983;53.156;17.960;2022-09-01T06:22:39;13.70;99.90
17726;DHT22;8983;53.156;17.960;2022-09-01T06:25:08;13.80;99.90
17726;DHT22;8983;53.156;17.960;2022-09-01T06:27:36;14.00;99.90
17726;DHT22;8983;53.156;17.960;2022-09-01T06:30:07;14.20;99.90
17726;DHT22;8983;53.156;17.960;2022-09-01T06:32:41;14.30;99.90
17726;DHT22;8983;53.156;17.960;2022-09-01T06:35:12;14.50;99.90
17726;DHT22;8983;53.156;17.960;2022-09-01T06:37:41;14.60;99.90
17726;DHT22;8983;53.156;17.960;2022-09-01T06:40:11;14.70;99.90
17726;DHT22;8983;53.156;17.960;2022-09-01T06:42:44;14.70;99.90
17726;DHT22;8983;53.156;17.960;2022-09-01T06:45:14;14.80;99.90
17726;DHT22;8983;53.156;17.960;2022-09-01T06:47:44;14.90;99.90
17726;DHT22;8983;53.156;17.960;2022-09-01T06:50:16;15.00;99.90
17726;DHT22;8983;53.156;17.960;2022-09-01T06:53:05;15.10;99.90
17726;DHT22;8983;53.156;17.960;2022-09-01T06:55:57;15.20;99.90
17726;DHT22;8983;53.156;17.960;2022-09-01T06:58:25;15.20;99.90
17726;DHT22;8983;53.156;17.960;2022-09-01T07:00:53;15.30;99.90
17726;DHT22;8983;53.156;17.960;2022-09-01T07:03:21;15.30;99.90
17726;DHT22;8983;53.156;17.960;2022-09-01T07:05:52;15.30;99.90
17726;DHT22;8983;53.156;17.960;2022-09-01T07:08:28;15.40;99.90
17726;DHT22;8983;53.156;17.960;2022-09-01T07:10:57;15.40;99.90
17726;DHT22;8983;53.156;17.960;2022-09-01T07:13:45;15.50;99.90
17726;DHT22;8983;53.156;17.960;2022-09-01T07:16:35;15.50;99.90
17726;DHT22;8983;53.156;17.960;2022-09-01T07:19:19;15.60;99.90
17726;DHT22;8983;53.156;17.960;2022-09-01T07:21:48;15.60;99.90
17726;DHT22;8983;53.156;17.960;2022-09-01T07:24:33;15.70;99.90
17726;DHT22;8983;53.156;17.960;2022-09-01T07:27:01;15.70;99.90
17726;DHT22;8983;53.156;17.960;2022-09-01T07:29:36;15.80;99.90
17726;DHT22;8983;53.156;17.960;2022-09-01T07:32:07;15.90;99.90
17726;DHT22;8983;53.156;17.960;2022-09-01T07:34:56;16.00;99.90
17726;DHT22;8983;53.156;17.960;2022-09-01T07:37:28;16.10;99.90
17726;DHT22;8983;53.156;17.960;2022-09-01T07:40:19;16.20;99.90
17726;DHT22;8983;53.156;17.960;2022-09-01T07:43:15;16.30;99.90
17726;DHT22;8983;53.156;17.960;2022-09-01T07:45:46;16.40;99.90
17726;DHT22;8983;53.156;17.960;2022-09-01T07:48:35;16.40;99.90
17726;DHT22;8983;53.156;17.960;2022-09-01T07:51:24;16.50;99.90
17726;DHT22;8983;53.156;17.960;2022-09-01T07:54:04;16.60;99.90
17726;DHT22;8983;53.156;17.960;2022-09-01T07:56:32;16.70;99.90
17726;DHT22;8983;53.156;17.960;2022-09-01T07:59:06;16.70;99.90
17726;DHT22;8983;53.156;17.960;2022-09-01T08:01:40;16.80;99.90
17726;DHT22;8983;53.156;17.960;2022-09-01T08:04:09;16.90;99.90
17726;DHT22;8983;53.156;17.960;2022-09-01T08:06:37;16.90;99.90
17726;DHT22;8983;53.156;17.960;2022-09-01T08:09:08;17.00;99.90
17726;DHT22;8983;53.156;17.960;2022-09-01T08:11:50;17.10;99.90
17726;DHT22;8983;53.156;17.960;2022-09-01T08:14:34;17.10;99.90
17726;DHT22;8983;53.156;17.960;2022-09-01T08:17:03;17.10;99.90
17726;DHT22;8983;53.156;17.960;2022-09-01T08:19:52;17.10;99.90
17726;DHT22;8983;53.156;17.960;2022-09-01T08:22:20;17.10;99.90
17726;DHT22;8983;53.156;17.960;2022-09-01T08:24:52;17.00;99.90
17726;DHT22;8983;53.156;17.960;2022-09-01T08:27:21;17.10;99.90
17726;DHT22;8983;53.156;17.960;2022-09-01T08:29:48;17.10;99.90
17726;DHT22;8983;53.156;17.960;2022-09-01T08:32:17;17.00;99.90
17726;DHT22;8983;53.156;17.960;2022-09-01T08:34:46;17.00;99.90
17726;DHT22;8983;53.156;17.960;2022-09-01T08:37:14;17.10;99.90
17726;DHT22;8983;53.156;17.960;2022-09-01T08:39:42;17.10;99.90
17726;DHT22;8983;53.156;17.960;2022-09-01T08:42:20;17.10;99.90
17726;DHT22;8983;53.156;17.960;2022-09-01T08:45:00;17.20;99.90
17726;DHT22;8983;53.156;17.960;2022-09-01T08:47:30;17.20;99.90
17726;DHT22;8983;53.156;17.960;2022-09-01T08:50:19;17.20;99.90
17726;DHT22;8983;53.156;17.960;2022-09-01T08:52:53;17.20;99.90
17726;DHT22;8983;53.156;17.960;2022-09-01T08:55:27;17.20;99.90
17726;DHT22;8983;53.156;17.960;2022-09-01T08:57:59;17.30;99.90
17726;DHT22;8983;53.156;17.960;2022-09-01T09:00:37;17.50;99.90
17726;DHT22;8983;53.156;17.960;2022-09-01T09:03:17;17.60;99.90
17726;DHT22;8983;53.156;17.960;2022-09-01T09:05:59;17.60;99.90
17726;DHT22;8983;53.156;17.960;2022-09-01T09:08:50;17.80;99.90
17726;DHT22;8983;53.156;17.960;2022-09-01T09:11:45;17.90;99.90
17726;DHT22;8983;53.156;17.960;2022-09-01T09:14:30;18.00;99.90
17726;DHT22;8983;53.156;17.960;2022-09-01T09:17:00;18.20;99.90
17726;DHT22;8983;53.156;17.960;2022-09-01T09:19:32;18.30;99.90
17726;DHT22;8983;53.156;17.960;2022-09-01T09:22:03;18.40;99.90
17726;DHT22;8983;53.156;17.960;2022-09-01T09:24:36;18.40;99.90
17726;DHT22;8983;53.156;17.960;2022-09-01T09:27:19;18.50;99.90
17726;DHT22;8983;53.156;17.960;2022-09-01T09:29:50;18.60;99.90
17726;DHT22;8983;53.156;17.960;2022-09-01T09:32:20;18.60;99.90
17726;DHT22;8983;53.156;17.960;2022-09-01T09:35:21;18.80;99.90
17726;DHT22;8983;53.156;17.960;2022-09-01T09:37:50;18.90;99.90
17726;DHT22;8983;53.156;17.960;2022-09-01T09:40:21;19.00;99.90
17726;DHT22;8983;53.156;17.960;2022-09-01T09:43:05;19.10;99.90
17726;DHT22;8983;53.156;17.960;2022-09-01T09:45:37;19.10;99.70
17726;DHT22;8983;53.156;17.960;2022-09-01T09:48:09;19.20;99.60
17726;DHT22;8983;53.156;17.960;2022-09-01T09:50:52;19.20;99.40
17726;DHT22;8983;53.156;17.960;2022-09-01T09:53:26;19.20;99.20
17726;DHT22;8983;53.156;17.960;2022-09-01T09:55:58;19.30;98.80
17726;DHT22;8983;53.156;17.960;2022-09-01T09:58:33;19.40;98.50
17726;DHT22;8983;53.156;17.960;2022-09-01T10:01:07;19.50;98.40
17726;DHT22;8983;53.156;17.960;2022-09-01T10:03:39;19.50;98.30
17726;DHT22;8983;53.156;17.960;2022-09-01T10:06:13;19.60;98.30
17726;DHT22;8983;53.156;17.960;2022-09-01T10:08:44;19.50;98.30
17726;DHT22;8983;53.156;17.960;2022-09-01T10:11:30;19.60;98.20
17726;DHT22;8983;53.156;17.960;2022-09-01T10:14:04;19.60;98.30
17726;DHT22;8983;53.156;17.960;2022-09-01T10:16:37;19.70;98.30
17726;DHT22;8983;53.156;17.960;2022-09-01T10:19:12;19.70;98.20
17726;DHT22;8983;53.156;17.960;2022-09-01T10:21:44;19.80;98.10
17726;DHT22;8983;53.156;17.960;2022-09-01T10:24:17;19.90;97.80
17726;DHT22;8983;53.156;17.960;2022-09-01T10:26:55;20.00;97.60
17726;DHT22;8983;53.156;17.960;2022-09-01T10:29:27;20.10;97.40
17726;DHT22;8983;53.156;17.960;2022-09-01T10:32:07;20.10;97.10
17726;DHT22;8983;53.156;17.960;2022-09-01T10:34:56;20.10;96.80
17726;DHT22;8983;53.156;17.960;2022-09-01T10:37:25;20.10;96.60
17726;DHT22;8983;53.156;17.960;2022-09-01T10:40:18;20.20;96.50
17726;DHT22;8983;53.156;17.960;2022-09-01T10:42:58;20.20;96.10
17726;DHT22;8983;53.156;17.960;2022-09-01T10:45:33;20.40;96.10
17726;DHT22;8983;53.156;17.960;2022-09-01T10:48:26;20.60;95.80
17726;DHT22;8983;53.156;17.960;2022-09-01T10:54:05;21.00;95.00
17726;DHT22;8983;53.156;17.960;2022-09-01T10:56:39;21.10;94.70
17726;DHT22;8983;53.156;17.960;2022-09-01T10:59:22;21.20;94.30
17726;DHT22;8983;53.156;17.960;2022-09-01T11:02:10;21.20;94.00
17726;DHT22;8983;53.156;17.960;2022-09-01T11:05:14;21.10;93.30
17726;DHT22;8983;53.156;17.960;2022-09-01T11:07:43;21.00;93.20
17726;DHT22;8983;53.156;17.960;2022-09-01T11:10:50;20.90;93.30
17726;DHT22;8983;53.156;17.960;2022-09-01T11:13:30;20.80;93.40
17726;DHT22;8983;53.156;17.960;2022-09-01T11:16:28;20.70;93.40
17726;DHT22;8983;53.156;17.960;2022-09-01T11:19:37;20.70;92.80
17726;DHT22;8983;53.156;17.960;2022-09-01T11:22:17;20.70;93.10
17726;DHT22;8983;53.156;17.960;2022-09-01T11:24:50;21.00;92.90
17726;DHT22;8983;53.156;17.960;2022-09-01T11:27:56;21.00;92.50
17726;DHT22;8983;53.156;17.960;2022-09-01T11:30:34;21.00;92.20
17726;DHT22;8983;53.156;17.960;2022-09-01T11:33:12;21.10;92.40
17726;DHT22;8983;53.156;17.960;2022-09-01T11:35:45;21.60;92.30
17726;DHT22;8983;53.156;17.960;2022-09-01T11:38:17;22.10;91.80
17726;DHT22;8983;53.156;17.960;2022-09-01T11:40:54;22.40;91.20
17726;DHT22;8983;53.156;17.960;2022-09-01T11:43:22;22.50;90.30
17726;DHT22;8983;53.156;17.960;2022-09-01T11:46:02;22.40;90.40
17726;DHT22;8983;53.156;17.960;2022-09-01T11:48:33;22.30;90.30
17726;DHT22;8983;53.156;17.960;2022-09-01T11:51:03;22.10;90.60
17726;DHT22;8983;53.156;17.960;2022-09-01T11:53:33;21.90;90.30
17726;DHT22;8983;53.156;17.960;2022-09-01T11:56:12;21.80;90.30
17726;DHT22;8983;53.156;17.960;2022-09-01T11:58:41;21.90;90.00
17726;DHT22;8983;53.156;17.960;2022-09-01T12:01:17;22.30;89.40
17726;DHT22;8983;53.156;17.960;2022-09-01T12:03:47;23.10;88.10
17726;DHT22;8983;53.156;17.960;2022-09-01T12:06:21;24.10;85.70
17726;DHT22;8983;53.156;17.960;2022-09-01T12:08:56;24.80;82.40
17726;DHT22;8983;53.156;17.960;2022-09-01T12:11:27;25.40;79.70
17726;DHT22;8983;53.156;17.960;2022-09-01T12:13:59;25.70;78.30
17726;DHT22;8983;53.156;17.960;2022-09-01T12:16:31;25.90;76.10
17726;DHT22;8983;53.156;17.960;2022-09-01T12:19:04;25.70;74.60
17726;DHT22;8983;53.156;17.960;2022-09-01T12:21:35;25.50;73.90
17726;DHT22;8983;53.156;17.960;2022-09-01T12:24:14;25.40;73.40
17726;DHT22;8983;53.156;17.960;2022-09-01T12:26:43;25.40;72.90
17726;DHT22;8983;53.156;17.960;2022-09-01T12:29:13;25.50;72.20
17726;DHT22;8983;53.156;17.960;2022-09-01T12:31:43;25.60;71.30
17726;DHT22;8983;53.156;17.960;2022-09-01T12:34:27;25.90;70.90
17726;DHT22;8983;53.156;17.960;2022-09-01T12:37:05;26.30;69.50
17726;DHT22;8983;53.156;17.960;2022-09-01T12:39:37;26.60;68.70
17726;DHT22;8983;53.156;17.960;2022-09-01T12:42:09;26.80;67.30
17726;DHT22;8983;53.156;17.960;2022-09-01T12:44:46;27.10;66.20
17726;DHT22;8983;53.156;17.960;2022-09-01T12:47:48;27.30;64.70
17726;DHT22;8983;53.156;17.960;2022-09-01T12:50:43;27.50;64.30
17726;DHT22;8983;53.156;17.960;2022-09-01T12:53:18;27.80;64.20
17726;DHT22;8983;53.156;17.960;2022-09-01T12:55:58;27.80;63.80
17726;DHT22;8983;53.156;17.960;2022-09-01T12:58:28;27.80;62.10
17726;DHT22;8983;53.156;17.960;2022-09-01T13:01:00;27.70;62.10
17726;DHT22;8983;53.156;17.960;2022-09-01T13:03:29;27.40;61.60
17726;DHT22;8983;53.156;17.960;2022-09-01T13:06:01;27.20;62.60
17726;DHT22;8983;53.156;17.960;2022-09-01T13:08:30;27.30;61.50
17726;DHT22;8983;53.156;17.960;2022-09-01T13:11:04;27.50;60.30
17726;DHT22;8983;53.156;17.960;2022-09-01T13:13:33;27.70;59.50
17726;DHT22;8983;53.156;17.960;2022-09-01T13:16:02;27.80;59.30
17726;DHT22;8983;53.156;17.960;2022-09-01T13:18:34;27.90;59.20
17726;DHT22;8983;53.156;17.960;2022-09-01T13:21:22;27.90;59.10
17726;DHT22;8983;53.156;17.960;2022-09-01T13:23:50;27.80;59.20
17726;DHT22;8983;53.156;17.960;2022-09-01T13:26:21;27.70;59.00
17726;DHT22;8983;53.156;17.960;2022-09-01T13:28:49;27.60;59.00
17726;DHT22;8983;53.156;17.960;2022-09-01T13:31:18;27.30;59.00
17726;DHT22;8983;53.156;17.960;2022-09-01T13:33:55;26.90;59.30
17726;DHT22;8983;53.156;17.960;2022-09-01T13:36:43;26.80;59.90
17726;DHT22;8983;53.156;17.960;2022-09-01T13:39:18;26.90;60.00
17726;DHT22;8983;53.156;17.960;2022-09-01T13:41:47;27.10;59.80
17726;DHT22;8983;53.156;17.960;2022-09-01T13:44:16;27.10;59.60
17726;DHT22;8983;53.156;17.960;2022-09-01T13:46:45;26.60;60.20
17726;DHT22;8983;53.156;17.960;2022-09-01T13:49:33;26.10;61.00
17726;DHT22;8983;53.156;17.960;2022-09-01T13:52:21;25.40;62.20
17726;DHT22;8983;53.156;17.960;2022-09-01T13:54:49;24.90;63.50
17726;DHT22;8983;53.156;17.960;2022-09-01T13:57:19;24.60;64.30
17726;DHT22;8983;53.156;17.960;2022-09-01T13:59:47;24.30;64.50
17726;DHT22;8983;53.156;17.960;2022-09-01T14:02:15;24.10;64.80
17726;DHT22;8983;53.156;17.960;2022-09-01T14:04:44;24.30;64.70
17726;DHT22;8983;53.156;17.960;2022-09-01T14:07:12;24.60;63.90
17726;DHT22;8983;53.156;17.960;2022-09-01T14:09:41;25.10;63.30
17726;DHT22;8983;53.156;17.960;2022-09-01T14:12:10;25.60;62.30
17726;DHT22;8983;53.156;17.960;2022-09-01T14:14:39;26.00;61.60
17726;DHT22;8983;53.156;17.960;2022-09-01T14:17:27;26.40;61.00
17726;DHT22;8983;53.156;17.960;2022-09-01T14:19:55;26.50;59.60
17726;DHT22;8983;53.156;17.960;2022-09-01T14:22:24;26.50;58.40
17726;DHT22;8983;53.156;17.960;2022-09-01T14:24:52;26.50;58.60
17726;DHT22;8983;53.156;17.960;2022-09-01T14:27:20;26.50;58.00
17726;DHT22;8983;53.156;17.960;2022-09-01T14:29:50;26.50;57.60
17726;DHT22;8983;53.156;17.960;2022-09-01T14:32:21;26.60;57.40
17726;DHT22;8983;53.156;17.960;2022-09-01T14:34:52;26.60;57.10
17726;DHT22;8983;53.156;17.960;2022-09-01T14:37:21;26.70;57.00
17726;DHT22;8983;53.156;17.960;2022-09-01T14:39:50;26.80;57.00
17726;DHT22;8983;53.156;17.960;2022-09-01T14:42:18;27.10;57.00
17726;DHT22;8983;53.156;17.960;2022-09-01T14:44:48;27.30;56.50
17726;DHT22;8983;53.156;17.960;2022-09-01T14:47:19;27.50;56.00
17726;DHT22;8983;53.156;17.960;2022-09-01T14:49:47;27.70;55.80
17726;DHT22;8983;53.156;17.960;2022-09-01T14:52:15;27.60;55.30
17726;DHT22;8983;53.156;17.960;2022-09-01T14:54:44;27.50;55.10
17726;DHT22;8983;53.156;17.960;2022-09-01T14:57:12;27.20;54.90
17726;DHT22;8983;53.156;17.960;2022-09-01T15:00:05;26.80;55.00
17726;DHT22;8983;53.156;17.960;2022-09-01T15:02:35;26.20;55.30
17726;DHT22;8983;53.156;17.960;2022-09-01T15:05:04;25.60;55.80
17726;DHT22;8983;53.156;17.960;2022-09-01T15:07:33;25.30;56.30
17726;DHT22;8983;53.156;17.960;2022-09-01T15:10:01;25.10;57.50
17726;DHT22;8983;53.156;17.960;2022-09-01T15:12:29;24.90;57.40
17726;DHT22;8983;53.156;17.960;2022-09-01T15:14:58;24.80;57.80
17726;DHT22;8983;53.156;17.960;2022-09-01T15:17:28;24.60;57.90
17726;DHT22;8983;53.156;17.960;2022-09-01T15:19:56;24.50;58.30
17726;DHT22;8983;53.156;17.960;2022-09-01T15:22:44;24.30;58.50
17726;DHT22;8983;53.156;17.960;2022-09-01T15:25:13;24.20;58.70
17726;DHT22;8983;53.156;17.960;2022-09-01T15:27:41;24.10;58.90
17726;DHT22;8983;53.156;17.960;2022-09-01T15:30:10;24.00;59.10
17726;DHT22;8983;53.156;17.960;2022-09-01T15:32:45;23.90;59.20
17726;DHT22;8983;53.156;17.960;2022-09-01T15:35:14;23.80;59.60
17726;DHT22;8983;53.156;17.960;2022-09-01T15:37:45;23.70;60.10
17726;DHT22;8983;53.156;17.960;2022-09-01T15:40:14;23.60;60.60
17726;DHT22;8983;53.156;17.960;2022-09-01T15:42:42;23.60;61.20
17726;DHT22;8983;53.156;17.960;2022-09-01T15:45:13;23.50;62.20
17726;DHT22;8983;53.156;17.960;2022-09-01T15:47:42;23.40;63.10
17726;DHT22;8983;53.156;17.960;2022-09-01T15:50:17;23.30;63.60
17726;DHT22;8983;53.156;17.960;2022-09-01T15:52:50;23.30;64.20
17726;DHT22;8983;53.156;17.960;2022-09-01T15:55:20;23.10;64.40
17726;DHT22;8983;53.156;17.960;2022-09-01T15:57:49;23.00;64.70
17726;DHT22;8983;53.156;17.960;2022-09-01T16:00:17;22.80;65.00
17726;DHT22;8983;53.156;17.960;2022-09-01T16:02:45;22.70;65.90
17726;DHT22;8983;53.156;17.960;2022-09-01T16:05:15;22.70;66.80
17726;DHT22;8983;53.156;17.960;2022-09-01T16:07:44;22.70;67.40
17726;DHT22;8983;53.156;17.960;2022-09-01T16:10:12;22.60;67.60
17726;DHT22;8983;53.156;17.960;2022-09-01T16:12:42;22.60;68.40
17726;DHT22;8983;53.156;17.960;2022-09-01T16:15:16;22.50;69.10
17726;DHT22;8983;53.156;17.960;2022-09-01T16:17:56;22.40;69.50
17726;DHT22;8983;53.156;17.960;2022-09-01T16:20:34;22.40;70.50
17726;DHT22;8983;53.156;17.960;2022-09-01T16:23:12;22.30;70.00
17726;DHT22;8983;53.156;17.960;2022-09-01T16:25:43;22.30;70.40
17726;DHT22;8983;53.156;17.960;2022-09-01T16:28:26;22.20;70.70
17726;DHT22;8983;53.156;17.960;2022-09-01T16:30:58;22.10;71.20
17726;DHT22;8983;53.156;17.960;2022-09-01T16:33:31;22.00;71.90
17726;DHT22;8983;53.156;17.960;2022-09-01T16:36:11;21.90;72.20
17726;DHT22;8983;53.156;17.960;2022-09-01T16:38:46;21.90;73.00